sensor_id;sensor_type;location;lat;lon;timestamp;pressure;altitude;pressure_sealevel;temperature;humidity
23303;BME280;11820;48.738;9.092;2023-05-01T00:01:49;96246.84;;;11.14;100.00
23303;BME280;11820;48.738;9.092;2023-05-01T00:04:14;96250.00;;;11.23;100.00
23303;BME280;11820;48.738;9.092;2023-05-01T00:06:41;96241.47;;;11.22;100.00
23303;BME280;11820;48.738;9.092;2023-05-01T00:09:06;96240.66;;;11.15;100.00
23303;BME280;11820;48.738;9.092;2023-05-01T00:11:31;96241.88;;;11.19;100.00
23303;BME280;11820;48.738;9.092;2023-05-01T00:13:56;96234.91;;;11.13;100.00
23303;BME280;11820;48.738;9.092;2023-05-01T00:16:22;96234.66;;;11.08;100.00
23303;BME280;11820;48.738;9.092;2023-05-01T00:18:47;96233.28;;;11.06;100.00
23303;BME280;11820;48.738;9.092;2023-05-01T00:21:12;96231.47;;;11.06;100.00
23303;BME280;11820;48.738;9.092;2023-05-01T00:23:38;96232.69;;;11.04;100.00
23303;BME280;11820;48.738;9.092;2023-05-01T00:26:03;96228.66;;;10.95;100.00
23303;BME280;11820;48.738;9.092;2023-05-01T00:28:28;96222.53;;;11.02;100.00
23303;BME280;11820;48.738;9.092;2023-05-01T00:30:54;96216.94;;;10.92;100.00
23303;BME280;11820;48.738;9.092;2023-05-01T00:33:19;96215.50;;;10.83;100.00
23303;BME280;11820;48.738;9.092;2023-05-01T00:35:45;96216.91;;;10.86;100.00
23303;BME280;11820;48.738;9.092;2023-05-01T00:38:11;96215.34;;;10.85;100.00
23303;BME280;11820;48.738;9.092;2023-05-01T00:40:43;96210.13;;;10.78;100.00
23303;BME280;11820;48.738;9.092;2023-05-01T00:43:10;96210.19;;;10.91;100.00
23303;BME280;11820;48.738;9.092;2023-05-01T00:45:36;96203.97;;;10.79;100.00
23303;BME280;11820;48.738;9.092;2023-05-01T00:48:02;96205.78;;;10.85;100.00
23303;BME280;11820;48.738;9.092;2023-05-01T00:50:28;96203.81;;;11.00;100.00
23303;BME280;11820;48.738;9.092;2023-05-01T00:52:53;96203.03;;;11.00;100.00
23303;BME280;11820;48.738;9.092;2023-05-01T00:55:19;96199.41;;;10.81;100.00
23303;BME280;11820;48.738;9.092;2023-05-01T00:57:45;96194.59;;;10.65;100.00
23303;BME280;11820;48.738;9.092;2023-05-01T01:00:11;96193.16;;;10.56;100.00
23303;BME280;11820;48.738;9.092;2023-05-01T01:02:37;96191.97;;;10.52;100.00
23303;BME280;11820;48.738;9.092;2023-05-01T01:05:02;96190.41;;;10.64;100.00
23303;BME280;11820;48.738;9.092;2023-05-01T01:07:52;96182.22;;;10.54;100.00
23303;BME280;11820;48.738;9.092;2023-05-01T01:10:34;96180.69;;;10.66;100.00
23303;BME280;11820;48.738;9.092;2023-05-01T01:13:13;96183.06;;;10.68;100.00
23303;BME280;11820;48.738;9.092;2023-05-01T01:15:49;96170.09;;;10.48;100.00
23303;BME280;11820;48.738;9.092;2023-05-01T01:21:08;96166.75;;;10.80;100.00
23303;BME280;11820;48.738;9.092;2023-05-01T01:29:38;96160.41;;;10.83;100.00
23303;BME280;11820;48.738;9.092;2023-05-01T01:32:55;96168.38;;;10.75;100.00
23303;BME280;11820;48.738;9.092;2023-05-01T01:35:26;96165.94;;;10.60;100.00
23303;BME280;11820;48.738;9.092;2023-05-01T01:38:00;96159.00;;;10.67;100.00
23303;BME280;11820;48.738;9.092;2023-05-01T01:40:34;96161.59;;;10.67;100.00
23303;BME280;11820;48.738;9.092;2023-05-01T01:43:09;96156.00;;;10.70;100.00
23303;BME280;11820;48.738;9.092;2023-05-01T01:45:42;96156.22;;;10.82;100.00
23303;BME280;11820;48.738;9.092;2023-05-01T01:48:13;96158.84;;;10.88;100.00
23303;BME280;11820;48.738;9.092;2023-05-01T01:50:41;96158.44;;;10.91;100.00
23303;BME280;11820;48.738;9.092;2023-05-01T01:53:09;96153.47;;;11.03;100.00
23303;BME280;11820;48.738;9.092;2023-05-01T01:55:36;96151.06;;;10.88;100.00
23303;BME280;11820;48.738;9.092;2023-05-01T01:58:05;96152.06;;;10.94;100.00
23303;BME280;11820;48.738;9.092;2023-05-01T02:00:31;96150.06;;;10.96;100.00
23303;BME280;11820;48.738;9.092;2023-05-01T02:02:59;96141.72;;;10.87;100.00
23303;BME280;11820;48.738;9.092;2023-05-01T02:05:26;96136.72;;;10.66;100.00
23303;BME280;11820;48.738;9.092;2023-05-01T02:07:53;96134.53;;;10.70;100.00
23303;BME280;11820;48.738;9.092;2023-05-01T02:10:21;96129.56;;;10.75;100.00
23303;BME280;11820;48.738;9.092;2023-05-01T02:12:49;96137.31;;;10.81;100.00
23303;BME280;11820;48.738;9.092;2023-05-01T02:15:16;96130.56;;;10.80;100.00
23303;BME280;11820;48.738;9.092;2023-05-01T02:17:43;96135.13;;;10.78;100.00
23303;BME280;11820;48.738;9.092;2023-05-01T02:20:10;96124.38;;;10.62;100.00
23303;BME280;11820;48.738;9.092;2023-05-01T02:22:39;96123.19;;;10.64;100.00
23303;BME280;11820;48.738;9.092;2023-05-01T02:25:06;96121.59;;;10.63;100.00
23303;BME280;11820;48.738;9.092;2023-05-01T02:27:43;96123.75;;;10.53;100.00
23303;BME280;11820;48.738;9.092;2023-05-01T02:30:10;96114.84;;;10.75;100.00
23303;BME280;11820;48.738;9.092;2023-05-01T02:32:36;96115.84;;;10.61;100.00
23303;BME280;11820;48.738;9.092;2023-05-01T02:35:01;96113.44;;;10.66;100.00
23303;BME280;11820;48.738;9.092;2023-05-01T02:37:27;96114.22;;;10.67;100.00
23303;BME280;11820;48.738;9.092;2023-05-01T02:39:54;96118.22;;;10.69;100.00
23303;BME280;11820;48.738;9.092;2023-05-01T02:42:22;96112.44;;;10.80;100.00
23303;BME280;11820;48.738;9.092;2023-05-01T02:44:53;96109.09;;;10.86;100.00
23303;BME280;11820;48.738;9.092;2023-05-01T02:47:21;96106.66;;;10.52;100.00
23303;BME280;11820;48.738;9.092;2023-05-01T02:49:48;96110.47;;;10.69;100.00
23303;BME280;11820;48.738;9.092;2023-05-01T02:52:16;96099.53;;;10.74;100.00
23303;BME280;11820;48.738;9.092;2023-05-01T02:54:43;96101.31;;;10.80;100.00
23303;BME280;11820;48.738;9.092;2023-05-01T02:57:10;96097.34;;;10.84;100.00
23303;BME280;11820;48.738;9.092;2023-05-01T02:59:36;96102.34;;;10.85;100.00
23303;BME280;11820;48.738;9.092;2023-05-01T03:02:01;96096.34;;;10.85;100.00
23303;BME280;11820;48.738;9.092;2023-05-01T03:04:27;96095.16;;;10.87;100.00
23303;BME280;11820;48.738;9.092;2023-05-01T03:06:53;96092.16;;;10.84;100.00
23303;BME280;11820;48.738;9.092;2023-05-01T03:09:19;96095.16;;;10.81;100.00
23303;BME280;11820;48.738;9.092;2023-05-01T03:11:45;96095.16;;;10.81;100.00
23303;BME280;11820;48.738;9.092;2023-05-01T03:14:10;96102.72;;;10.89;100.00
23303;BME280;11820;48.738;9.092;2023-05-01T03:16:36;96098.75;;;10.86;100.00
23303;BME280;11820;48.738;9.092;2023-05-01T03:19:01;96091.00;;;10.86;100.00
23303;BME280;11820;48.738;9.092;2023-05-01T03:21:27;96094.34;;;10.87;100.00
23303;BME280;11820;48.738;9.092;2023-05-01T03:23:52;96095.94;;;10.81;100.00
23303;BME280;11820;48.738;9.092;2023-05-01T03:26:18;96086.78;;;10.72;100.00
23303;BME280;11820;48.738;9.092;2023-05-01T03:28:43;96090.78;;;10.68;100.00
23303;BME280;11820;48.738;9.092;2023-05-01T03:31:08;96086.19;;;10.70;100.00
23303;BME280;11820;48.738;9.092;2023-05-01T03:33:34;96082.81;;;10.76;100.00
23303;BME280;11820;48.738;9.092;2023-05-01T03:36:01;96081.63;;;10.72;100.00
23303;BME280;11820;48.738;9.092;2023-05-01T03:38:30;96072.88;;;10.86;100.00
23303;BME280;11820;48.738;9.092;2023-05-01T03:40:56;96072.84;;;10.67;100.00
23303;BME280;11820;48.738;9.092;2023-05-01T03:43:23;96078.44;;;10.70;100.00
23303;BME280;11820;48.738;9.092;2023-05-01T03:45:49;96076.47;;;10.85;100.00
23303;BME280;11820;48.738;9.092;2023-05-01T03:48:15;96064.50;;;10.97;100.00
23303;BME280;11820;48.738;9.092;2023-05-01T03:50:41;96070.47;;;10.85;100.00
23303;BME280;11820;48.738;9.092;2023-05-01T03:53:06;96070.88;;;10.82;100.00
23303;BME280;11820;48.738;9.092;2023-05-01T03:55:32;96064.91;;;10.81;100.00
23303;BME280;11820;48.738;9.092;2023-05-01T03:57:57;96068.88;;;10.71;100.00
23303;BME280;11820;48.738;9.092;2023-05-01T04:00:23;96066.13;;;10.85;100.00
23303;BME280;11820;48.738;9.092;2023-05-01T04:02:48;96063.34;;;10.74;100.00
23303;BME280;11820;48.738;9.092;2023-05-01T04:05:13;96068.09;;;10.96;100.00
23303;BME280;11820;48.738;9.092;2023-05-01T04:07:39;96061.31;;;10.95;100.00
23303;BME280;11820;48.738;9.092;2023-05-01T04:10:05;96057.94;;;10.95;100.00
23303;BME280;11820;48.738;9.092;2023-05-01T04:12:32;96064.69;;;10.96;100.00
23303;BME280;11820;48.738;9.092;2023-05-01T04:14:57;96064.09;;;11.00;100.00
23303;BME280;11820;48.738;9.092;2023-05-01T04:17:23;96061.50;;;11.07;100.00
23303;BME280;11820;48.738;9.092;2023-05-01T04:19:49;96065.69;;;11.08;100.00
23303;BME280;11820;48.738;9.092;2023-05-01T04:22:14;96061.28;;;11.08;100.00
23303;BME280;11820;48.738;9.092;2023-05-01T04:24:40;96061.09;;;11.03;100.00
23303;BME280;11820;48.738;9.092;2023-05-01T04:27:05;96057.72;;;11.09;100.00
23303;BME280;11820;48.738;9.092;2023-05-01T04:29:30;96064.09;;;11.13;100.00
23303;BME280;11820;48.738;9.092;2023-05-01T04:31:56;96062.88;;;11.09;100.00
23303;BME280;11820;48.738;9.092;2023-05-01T04:34:21;96059.69;;;11.20;100.00
23303;BME280;11820;48.738;9.092;2023-05-01T04:36:47;96064.66;;;11.22;100.00
23303;BME280;11820;48.738;9.092;2023-05-01T04:39:12;96066.06;;;11.24;100.00
23303;BME280;11820;48.738;9.092;2023-05-01T04:41:37;96065.06;;;11.25;100.00
23303;BME280;11820;48.738;9.092;2023-05-01T04:44:03;96070.41;;;11.30;100.00
23303;BME280;11820;48.738;9.092;2023-05-01T04:46:28;96070.00;;;11.39;100.00
23303;BME280;11820;48.738;9.092;2023-05-01T04:48:53;96070.59;;;11.48;100.00
23303;BME280;11820;48.738;9.092;2023-05-01T04:51:19;96068.81;;;11.35;100.00
23303;BME280;11820;48.738;9.092;2023-05-01T04:53:44;96063.81;;;11.40;100.00
23303;BME280;11820;48.738;9.092;2023-05-01T04:56:09;96065.22;;;11.49;100.00
23303;BME280;11820;48.738;9.092;2023-05-01T04:58:35;96064.81;;;11.46;100.00
23303;BME280;11820;48.738;9.092;2023-05-01T05:01:00;96061.25;;;11.40;100.00
23303;BME280;11820;48.738;9.092;2023-05-01T05:03:25;96066.81;;;11.44;100.00
23303;BME280;11820;48.738;9.092;2023-05-01T05:05:51;96070.00;;;11.46;100.00
23303;BME280;11820;48.738;9.092;2023-05-01T05:08:16;96070.75;;;11.53;100.00
23303;BME280;11820;48.738;9.092;2023-05-01T05:10:41;96064.81;;;11.52;100.00
23303;BME280;11820;48.738;9.092;2023-05-01T05:13:07;96064.59;;;11.54;100.00
23303;BME280;11820;48.738;9.092;2023-05-01T05:15:33;96067.59;;;11.57;100.00
23303;BME280;11820;48.738;9.092;2023-05-01T05:17:59;96069.78;;;11.47;100.00
23303;BME280;11820;48.738;9.092;2023-05-01T05:20:24;96064.78;;;11.59;100.00
23303;BME280;11820;48.738;9.092;2023-05-01T05:22:50;96061.00;;;11.55;100.00
23303;BME280;11820;48.738;9.092;2023-05-01T05:25:16;96065.00;;;11.57;100.00
23303;BME280;11820;48.738;9.092;2023-05-01T05:27:41;96066.19;;;11.55;100.00
23303;BME280;11820;48.738;9.092;2023-05-01T05:30:07;96074.56;;;11.57;100.00
23303;BME280;11820;48.738;9.092;2023-05-01T05:32:33;96073.56;;;11.64;100.00
23303;BME280;11820;48.738;9.092;2023-05-01T05:34:59;96075.94;;;11.66;100.00
23303;BME280;11820;48.738;9.092;2023-05-01T05:37:24;96075.38;;;11.64;100.00
23303;BME280;11820;48.738;9.092;2023-05-01T05:39:51;96073.53;;;11.71;100.00
23303;BME280;11820;48.738;9.092;2023-05-01T05:42:16;96075.13;;;11.65;100.00
23303;BME280;11820;48.738;9.092;2023-05-01T05:44:41;96077.94;;;11.64;100.00
23303;BME280;11820;48.738;9.092;2023-05-01T05:47:06;96070.13;;;11.77;100.00
23303;BME280;11820;48.738;9.092;2023-05-01T05:49:32;96066.94;;;11.81;100.00
23303;BME280;11820;48.738;9.092;2023-05-01T05:51:57;96061.34;;;11.78;100.00
23303;BME280;11820;48.738;9.092;2023-05-01T05:54:22;96068.94;;;11.79;100.00
23303;BME280;11820;48.738;9.092;2023-05-01T05:56:48;96053.22;;;11.74;100.00
23303;BME280;11820;48.738;9.092;2023-05-01T05:59:13;96063.59;;;11.68;100.00
23303;BME280;11820;48.738;9.092;2023-05-01T06:01:38;96063.97;;;11.71;100.00
23303;BME280;11820;48.738;9.092;2023-05-01T06:04:05;96061.59;;;11.70;100.00
23303;BME280;11820;48.738;9.092;2023-05-01T06:06:31;96078.13;;;11.69;100.00
23303;BME280;11820;48.738;9.092;2023-05-01T06:08:57;96066.25;;;11.92;100.00
23303;BME280;11820;48.738;9.092;2023-05-01T06:11:22;96059.06;;;11.94;100.00
23303;BME280;11820;48.738;9.092;2023-05-01T06:13:48;96069.84;;;11.98;100.00
23303;BME280;11820;48.738;9.092;2023-05-01T06:16:13;96064.25;;;12.01;100.00
23303;BME280;11820;48.738;9.092;2023-05-01T06:18:39;96062.38;;;12.14;100.00
23303;BME280;11820;48.738;9.092;2023-05-01T06:21:05;96067.94;;;12.18;100.00
23303;BME280;11820;48.738;9.092;2023-05-01T06:23:30;96066.91;;;12.25;100.00
23303;BME280;11820;48.738;9.092;2023-05-01T06:25:57;96069.69;;;12.24;100.00
23303;BME280;11820;48.738;9.092;2023-05-01T06:28:23;96070.13;;;12.21;100.00
23303;BME280;11820;48.738;9.092;2023-05-01T06:30:48;96077.16;;;12.14;100.00
23303;BME280;11820;48.738;9.092;2023-05-01T06:33:13;96069.53;;;12.19;100.00
23303;BME280;11820;48.738;9.092;2023-05-01T06:35:39;96077.75;;;12.09;100.00
23303;BME280;11820;48.738;9.092;2023-05-01T06:38:04;96077.91;;;12.21;100.00
23303;BME280;11820;48.738;9.092;2023-05-01T06:40:29;96077.66;;;12.22;100.00
23303;BME280;11820;48.738;9.092;2023-05-01T06:42:56;96080.25;;;12.29;100.00
23303;BME280;11820;48.738;9.092;2023-05-01T06:45:21;96078.06;;;12.26;100.00
23303;BME280;11820;48.738;9.092;2023-05-01T06:47:47;96084.44;;;12.23;100.00
23303;BME280;11820;48.738;9.092;2023-05-01T06:50:12;96081.41;;;12.33;100.00
23303;BME280;11820;48.738;9.092;2023-05-01T06:52:38;96090.00;;;12.33;100.00
23303;BME280;11820;48.738;9.092;2023-05-01T06:55:04;96091.78;;;12.33;100.00
23303;BME280;11820;48.738;9.092;2023-05-01T06:57:30;96093.94;;;12.36;100.00
23303;BME280;11820;48.738;9.092;2023-05-01T06:59:55;96095.16;;;12.40;100.00
23303;BME280;11820;48.738;9.092;2023-05-01T07:02:20;96095.47;;;12.50;100.00
23303;BME280;11820;48.738;9.092;2023-05-01T07:04:46;96098.63;;;12.58;100.00
23303;BME280;11820;48.738;9.092;2023-05-01T07:07:11;96096.19;;;12.63;100.00
23303;BME280;11820;48.738;9.092;2023-05-01T07:09:36;96096.25;;;12.81;100.00
23303;BME280;11820;48.738;9.092;2023-05-01T07:12:03;96096.31;;;12.75;100.00
23303;BME280;11820;48.738;9.092;2023-05-01T07:14:29;96103.66;;;12.78;100.00
23303;BME280;11820;48.738;9.092;2023-05-01T07:16:55;96101.88;;;12.78;100.00
23303;BME280;11820;48.738;9.092;2023-05-01T07:19:20;96103.53;;;12.66;100.00
23303;BME280;11820;48.738;9.092;2023-05-01T07:21:45;96096.47;;;12.80;100.00
23303;BME280;11820;48.738;9.092;2023-05-01T07:24:11;96091.63;;;12.90;100.00
23303;BME280;11820;48.738;9.092;2023-05-01T07:26:36;96090.22;;;12.94;100.00
23303;BME280;11820;48.738;9.092;2023-05-01T07:29:02;96091.94;;;12.99;100.00
23303;BME280;11820;48.738;9.092;2023-05-01T07:31:28;96089.09;;;13.07;100.00
23303;BME280;11820;48.738;9.092;2023-05-01T07:33:53;96092.84;;;13.11;100.00
23303;BME280;11820;48.738;9.092;2023-05-01T07:36:19;96084.22;;;13.17;100.00
23303;BME280;11820;48.738;9.092;2023-05-01T07:38:46;96079.81;;;13.18;100.00
23303;BME280;11820;48.738;9.092;2023-05-01T07:41:11;96081.97;;;13.21;100.00
23303;BME280;11820;48.738;9.092;2023-05-01T07:43:37;96083.94;;;13.25;100.00
23303;BME280;11820;48.738;9.092;2023-05-01T07:46:02;96088.19;;;12.96;100.00
23303;BME280;11820;48.738;9.092;2023-05-01T07:48:27;96090.75;;;13.02;100.00
23303;BME280;11820;48.738;9.092;2023-05-01T07:50:53;96089.22;;;13.12;100.00
23303;BME280;11820;48.738;9.092;2023-05-01T07:53:19;96085.03;;;13.11;100.00
23303;BME280;11820;48.738;9.092;2023-05-01T07:55:44;96085.03;;;12.94;100.00
23303;BME280;11820;48.738;9.092;2023-05-01T07:58:09;96085.22;;;12.86;100.00
23303;BME280;11820;48.738;9.092;2023-05-01T08:00:35;96078.94;;;13.06;100.00
23303;BME280;11820;48.738;9.092;2023-05-01T08:03:00;96077.97;;;13.00;100.00
23303;BME280;11820;48.738;9.092;2023-05-01T08:05:26;96076.25;;;13.12;100.00
23303;BME280;11820;48.738;9.092;2023-05-01T08:07:51;96076.19;;;13.19;100.00
23303;BME280;11820;48.738;9.092;2023-05-01T08:10:16;96080.03;;;13.16;100.00
23303;BME280;11820;48.738;9.092;2023-05-01T08:12:42;96087.50;;;13.06;100.00
23303;BME280;11820;48.738;9.092;2023-05-01T08:15:07;96084.47;;;13.09;100.00
23303;BME280;11820;48.738;9.092;2023-05-01T08:17:34;96090.53;;;13.28;100.00
23303;BME280;11820;48.738;9.092;2023-05-01T08:19:59;96086.22;;;13.15;100.00
23303;BME280;11820;48.738;9.092;2023-05-01T08:22:25;96083.94;;;13.25;100.00
23303;BME280;11820;48.738;9.092;2023-05-01T08:24:50;96081.19;;;13.38;100.00
23303;BME280;11820;48.738;9.092;2023-05-01T08:27:16;96081.03;;;13.58;100.00
23303;BME280;11820;48.738;9.092;2023-05-01T08:29:41;96082.28;;;13.49;100.00
23303;BME280;11820;48.738;9.092;2023-05-01T08:32:06;96079.06;;;13.53;100.00
23303;BME280;11820;48.738;9.092;2023-05-01T08:34:32;96076.66;;;13.52;100.00
23303;BME280;11820;48.738;9.092;2023-05-01T08:36:58;96075.38;;;13.61;100.00
23303;BME280;11820;48.738;9.092;2023-05-01T08:39:23;96065.25;;;13.71;100.00
23303;BME280;11820;48.738;9.092;2023-05-01T08:41:49;96063.81;;;13.93;100.00
23303;BME280;11820;48.738;9.092;2023-05-01T08:44:15;96067.03;;;14.06;100.00
23303;BME280;11820;48.738;9.092;2023-05-01T08:47:03;96067.47;;;14.03;100.00
23303;BME280;11820;48.738;9.092;2023-05-01T08:49:32;96065.13;;;14.13;100.00
23303;BME280;11820;48.738;9.092;2023-05-01T08:52:00;96070.28;;;14.20;100.00
23303;BME280;11820;48.738;9.092;2023-05-01T08:54:26;96068.13;;;14.17;100.00
23303;BME280;11820;48.738;9.092;2023-05-01T08:56:53;96067.53;;;14.33;100.00
23303;BME280;11820;48.738;9.092;2023-05-01T08:59:20;96065.19;;;14.43;100.00
23303;BME280;11820;48.738;9.092;2023-05-01T09:01:48;96071.28;;;14.37;100.00
23303;BME280;11820;48.738;9.092;2023-05-01T09:04:15;96071.44;;;14.24;100.00
23303;BME280;11820;48.738;9.092;2023-05-01T09:06:41;96072.78;;;14.44;100.00
23303;BME280;11820;48.738;9.092;2023-05-01T09:09:08;96070.31;;;14.49;100.00
23303;BME280;11820;48.738;9.092;2023-05-01T09:11:34;96075.19;;;14.57;100.00
23303;BME280;11820;48.738;9.092;2023-05-01T09:14:01;96071.44;;;14.53;100.00
23303;BME280;11820;48.738;9.092;2023-05-01T09:16:29;96073.25;;;14.64;100.00
23303;BME280;11820;48.738;9.092;2023-05-01T09:18:56;96073.13;;;14.59;100.00
23303;BME280;11820;48.738;9.092;2023-05-01T09:21:23;96072.41;;;14.70;100.00
23303;BME280;11820;48.738;9.092;2023-05-01T09:23:50;96071.59;;;14.81;100.00
23303;BME280;11820;48.738;9.092;2023-05-01T09:26:15;96065.72;;;14.74;100.00
23303;BME280;11820;48.738;9.092;2023-05-01T09:28:42;96071.97;;;14.96;100.00
23303;BME280;11820;48.738;9.092;2023-05-01T09:31:29;96076.91;;;14.74;100.00
23303;BME280;11820;48.738;9.092;2023-05-01T09:33:57;96076.75;;;14.99;100.00
23303;BME280;11820;48.738;9.092;2023-05-01T09:36:24;96073.59;;;15.20;100.00
23303;BME280;11820;48.738;9.092;2023-05-01T09:38:50;96071.53;;;15.22;100.00
23303;BME280;11820;48.738;9.092;2023-05-01T09:41:16;96076.63;;;15.17;100.00
23303;BME280;11820;48.738;9.092;2023-05-01T09:43:48;96076.38;;;14.95;100.00
23303;BME280;11820;48.738;9.092;2023-05-01T09:46:13;96075.50;;;15.13;100.00
23303;BME280;11820;48.738;9.092;2023-05-01T09:48:39;96068.13;;;15.10;100.00
23303;BME280;11820;48.738;9.092;2023-05-01T09:51:34;96065.00;;;15.31;100.00
23303;BME280;11820;48.738;9.092;2023-05-01T09:54:01;96069.97;;;15.21;100.00
23303;BME280;11820;48.738;9.092;2023-05-01T09:56:29;96064.53;;;15.34;100.00
23303;BME280;11820;48.738;9.092;2023-05-01T09:58:55;96062.16;;;15.44;100.00
23303;BME280;11820;48.738;9.092;2023-05-01T10:01:45;96064.19;;;15.53;100.00
23303;BME280;11820;48.738;9.092;2023-05-01T10:04:11;96072.16;;;15.35;100.00
23303;BME280;11820;48.738;9.092;2023-05-01T10:06:37;96061.25;;;15.38;100.00
23303;BME280;11820;48.738;9.092;2023-05-01T10:09:03;96062.50;;;15.47;100.00
23303;BME280;11820;48.738;9.092;2023-05-01T10:11:46;96064.41;;;15.63;100.00
23303;BME280;11820;48.738;9.092;2023-05-01T10:14:12;96067.09;;;15.80;100.00
23303;BME280;11820;48.738;9.092;2023-05-01T10:16:38;96066.00;;;15.64;100.00
23303;BME280;11820;48.738;9.092;2023-05-01T10:19:04;96071.97;;;15.65;100.00
23303;BME280;11820;48.738;9.092;2023-05-01T10:21:30;96067.28;;;15.90;100.00
23303;BME280;11820;48.738;9.092;2023-05-01T10:24:02;96063.88;;;16.01;100.00
23303;BME280;11820;48.738;9.092;2023-05-01T10:26:30;96062.66;;;16.20;100.00
23303;BME280;11820;48.738;9.092;2023-05-01T10:28:57;96067.03;;;16.30;100.00
23303;BME280;11820;48.738;9.092;2023-05-01T10:31:23;96062.97;;;16.34;100.00
23303;BME280;11820;48.738;9.092;2023-05-01T10:33:51;96065.06;;;16.49;100.00
23303;BME280;11820;48.738;9.092;2023-05-01T10:36:23;96061.59;;;16.60;100.00
23303;BME280;11820;48.738;9.092;2023-05-01T10:38:49;96060.66;;;16.49;100.00
23303;BME280;11820;48.738;9.092;2023-05-01T10:41:15;96062.03;;;16.40;100.00
23303;BME280;11820;48.738;9.092;2023-05-01T10:43:41;96058.31;;;16.36;100.00
23303;BME280;11820;48.738;9.092;2023-05-01T10:53:40;96067.34;;;16.06;100.00
23303;BME280;11820;48.738;9.092;2023-05-01T10:59:00;96056.31;;;15.76;100.00
23303;BME280;11820;48.738;9.092;2023-05-01T11:01:36;96052.13;;;15.75;100.00
23303;BME280;11820;48.738;9.092;2023-05-01T11:09:45;96057.25;;;15.59;100.00
23303;BME280;11820;48.738;9.092;2023-05-01T11:12:12;96051.03;;;15.48;100.00
23303;BME280;11820;48.738;9.092;2023-05-01T11:20:04;96054.44;;;15.26;100.00
23303;BME280;11820;48.738;9.092;2023-05-01T11:22:30;96056.94;;;15.21;100.00
23303;BME280;11820;48.738;9.092;2023-05-01T11:24:55;96057.72;;;15.10;100.00
23303;BME280;11820;48.738;9.092;2023-05-01T11:27:21;96054.53;;;15.08;100.00
23303;BME280;11820;48.738;9.092;2023-05-01T11:29:48;96051.81;;;15.03;100.00
23303;BME280;11820;48.738;9.092;2023-05-01T11:32:17;96059.19;;;14.94;100.00
23303;BME280;11820;48.738;9.092;2023-05-01T11:34:43;96054.78;;;14.95;100.00
23303;BME280;11820;48.738;9.092;2023-05-01T11:37:08;96055.56;;;14.95;100.00
23303;BME280;11820;48.738;9.092;2023-05-01T11:39:34;96055.09;;;14.87;100.00
23303;BME280;11820;48.738;9.092;2023-05-01T11:42:08;96058.22;;;14.77;100.00
23303;BME280;11820;48.738;9.092;2023-05-01T11:44:34;96056.31;;;14.73;100.00
23303;BME280;11820;48.738;9.092;2023-05-01T11:46:59;96060.19;;;14.82;100.00
23303;BME280;11820;48.738;9.092;2023-05-01T11:49:28;96057.13;;;14.85;100.00
23303;BME280;11820;48.738;9.092;2023-05-01T11:51:57;96062.00;;;14.93;100.00
23303;BME280;11820;48.738;9.092;2023-05-01T11:54:22;96061.75;;;14.83;100.00
23303;BME280;11820;48.738;9.092;2023-05-01T11:56:56;96068.09;;;14.87;100.00
23303;BME280;11820;48.738;9.092;2023-05-01T11:59:22;96056.69;;;14.99;100.00
23303;BME280;11820;48.738;9.092;2023-05-01T12:01:47;96058.28;;;15.00;100.00
23303;BME280;11820;48.738;9.092;2023-05-01T12:04:23;96048.97;;;15.04;100.00
23303;BME280;11820;48.738;9.092;2023-05-01T12:06:49;96050.81;;;15.04;100.00
23303;BME280;11820;48.738;9.092;2023-05-01T12:09:16;96047.75;;;15.07;100.00
23303;BME280;11820;48.738;9.092;2023-05-01T12:11:43;96052.97;;;15.07;100.00
23303;BME280;11820;48.738;9.092;2023-05-01T12:14:09;96049.34;;;15.19;100.00
23303;BME280;11820;48.738;9.092;2023-05-01T12:16:36;96038.25;;;15.24;100.00
23303;BME280;11820;48.738;9.092;2023-05-01T12:19:02;96043.34;;;15.42;100.00
23303;BME280;11820;48.738;9.092;2023-05-01T12:21:28;96043.31;;;15.53;100.00
23303;BME280;11820;48.738;9.092;2023-05-01T12:23:53;96041.25;;;15.67;100.00
23303;BME280;11820;48.738;9.092;2023-05-01T12:26:20;96040.47;;;15.78;100.00
23303;BME280;11820;48.738;9.092;2023-05-01T12:29:00;96041.38;;;15.72;100.00
23303;BME280;11820;48.738;9.092;2023-05-01T12:31:27;96032.06;;;15.76;100.00
23303;BME280;11820;48.738;9.092;2023-05-01T12:33:57;96040.59;;;15.60;100.00
23303;BME280;11820;48.738;9.092;2023-05-01T12:36:24;96037.00;;;15.49;100.00
23303;BME280;11820;48.738;9.092;2023-05-01T12:41:42;96043.78;;;15.39;100.00
23303;BME280;11820;48.738;9.092;2023-05-01T12:44:19;96043.59;;;15.40;100.00
23303;BME280;11820;48.738;9.092;2023-05-01T12:46:51;96035.78;;;15.29;100.00
23303;BME280;11820;48.738;9.092;2023-05-01T12:49:17;96040.19;;;15.28;100.00
23303;BME280;11820;48.738;9.092;2023-05-01T12:51:51;96038.00;;;15.25;100.00
23303;BME280;11820;48.738;9.092;2023-05-01T12:54:18;96043.66;;;15.11;100.00
23303;BME280;11820;48.738;9.092;2023-05-01T12:56:44;96046.38;;;15.04;100.00
23303;BME280;11820;48.738;9.092;2023-05-01T12:59:21;96045.81;;;15.02;100.00
23303;BME280;11820;48.738;9.092;2023-05-01T13:01:47;96047.75;;;15.07;100.00
23303;BME280;11820;48.738;9.092;2023-05-01T13:04:22;96055.00;;;15.05;100.00
23303;BME280;11820;48.738;9.092;2023-05-01T13:06:48;96047.75;;;14.95;100.00
23303;BME280;11820;48.738;9.092;2023-05-01T13:09:13;96052.38;;;14.93;100.00
23303;BME280;11820;48.738;9.092;2023-05-01T13:11:41;96043.31;;;14.84;100.00
23303;BME280;11820;48.738;9.092;2023-05-01T13:14:07;96042.19;;;14.80;100.00
23303;BME280;11820;48.738;9.092;2023-05-01T13:16:33;96042.63;;;14.77;100.00
23303;BME280;11820;48.738;9.092;2023-05-01T13:18:58;96043.06;;;14.74;100.00
23303;BME280;11820;48.738;9.092;2023-05-01T13:21:24;96046.78;;;14.67;100.00
23303;BME280;11820;48.738;9.092;2023-05-01T13:23:53;96051.63;;;14.52;100.00